^^
TXWeather Station Historical Data
 
Daily Summary for October 23, 2020 Units:  English    Metric   Both
Daily Weekly Monthly Yearly Custom
  Current: High: Low: Average:
Temperature: 67.5 °F 88.7 °F 67.5 °F 76 °F
Dew Point: 61.3 °F 75.9 °F 61.3 °F 71.2 °F
Humidity: 81% 95% 64% 86%
Wind Speed: 9mph 29mph 0mph 4.5mph
Wind Gust: 9mph 31mph - -
WindNorth - - SSE
Pressure: 30.1 in 30.1 in 29.9 in -
Precipitation: 0.180 in      
Historical Graphs
 
 
Tabular Data for October 23, 2020
Time Temperature Dew Point Pressure Wind Wind Speed Wind Gust Humidity Rainfall Rate (Hourly) solar
00:04 75.6 °F 72.1 °F 30.0 in SE 3 mph 3 mph 89% 0.000 in 0.00 W/m2
00:09 75.4 °F 72.3 °F 30.0 in ESE 2 mph 2 mph 90% 0.000 in 0.00 W/m2
00:14 75.4 °F 72.3 °F 30.0 in ENE 3 mph 3 mph 90% 0.000 in 0.00 W/m2
00:19 75.4 °F 72.3 °F 30.0 in ENE 2 mph 2 mph 90% 0.000 in 0.00 W/m2
00:24 75.2 °F 72.1 °F 30.0 in East 2 mph 2 mph 90% 0.000 in 0.00 W/m2
00:29 75.2 °F 72.1 °F 30.0 in East 3 mph 3 mph 90% 0.000 in 0.00 W/m2
00:34 75.2 °F 72.1 °F 30.0 in ESE 1 mph 3 mph 90% 0.000 in 0.00 W/m2
00:39 75.0 °F 72.1 °F 30.0 in ESE 1 mph 1 mph 91% 0.000 in 0.00 W/m2
00:44 75.0 °F 72.1 °F 30.0 in ESE 1 mph 1 mph 91% 0.000 in 0.00 W/m2
00:49 74.8 °F 72.0 °F 30.0 in ESE 1 mph 1 mph 91% 0.000 in 0.00 W/m2
00:54 74.8 °F 72.0 °F 30.0 in ESE 1 mph 1 mph 91% 0.000 in 0.00 W/m2
00:59 74.7 °F 71.8 °F 30.0 in ESE 1 mph 1 mph 91% 0.000 in 0.00 W/m2
01:04 74.7 °F 71.8 °F 30.0 in ESE 1 mph 1 mph 91% 0.000 in 0.00 W/m2
01:09 74.5 °F 71.6 °F 30.0 in ESE 1 mph 1 mph 91% 0.000 in 0.00 W/m2
01:14 74.5 °F 72.0 °F 30.0 in ESE 1 mph 2 mph 92% 0.000 in 0.00 W/m2
01:19 74.5 °F 72.0 °F 30.0 in ESE 1 mph 1 mph 92% 0.000 in 0.00 W/m2
01:24 74.5 °F 72.0 °F 30.0 in ESE 1 mph 2 mph 92% 0.000 in 0.00 W/m2
01:29 74.3 °F 71.8 °F 30.0 in Calm   1 mph 92% 0.000 in 0.00 W/m2
01:34 74.3 °F 71.8 °F 30.0 in Calm     92% 0.000 in 0.00 W/m2
01:39 74.1 °F 71.6 °F 30.0 in ESE 1 mph 1 mph 92% 0.000 in 0.00 W/m2
01:44 74.3 °F 71.8 °F 30.0 in ESE 1 mph 1 mph 92% 0.000 in 0.00 W/m2
01:49 74.3 °F 71.8 °F 30.0 in Calm   1 mph 92% 0.000 in 0.00 W/m2
01:54 74.3 °F 71.8 °F 30.0 in Calm     92% 0.000 in 0.00 W/m2
01:59 74.1 °F 71.6 °F 30.0 in Calm   1 mph 92% 0.000 in 0.00 W/m2
02:04 74.1 °F 71.6 °F 30.0 in ESE 1 mph 1 mph 92% 0.000 in 0.00 W/m2
02:09 74.3 °F 72.1 °F 30.0 in ESE 1 mph 2 mph 93% 0.000 in 0.00 W/m2
02:14 74.3 °F 71.8 °F 30.0 in ESE 1 mph 1 mph 92% 0.000 in 0.00 W/m2
02:19 74.3 °F 71.8 °F 30.0 in ESE 1 mph 1 mph 92% 0.000 in 0.00 W/m2
02:24 74.1 °F 71.6 °F 30.0 in Calm   1 mph 92% 0.000 in 0.00 W/m2
02:29 74.1 °F 71.6 °F 30.0 in Calm   1 mph 92% 0.000 in 0.00 W/m2
02:34 74.1 °F 72.0 °F 30.0 in Calm     93% 0.000 in 0.00 W/m2
02:39 74.1 °F 72.0 °F 30.0 in Calm     93% 0.000 in 0.00 W/m2
02:44 74.3 °F 72.1 °F 30.0 in ESE 1 mph 1 mph 93% 0.000 in 0.00 W/m2
02:49 74.1 °F 72.0 °F 30.0 in ESE 1 mph 1 mph 93% 0.000 in 0.00 W/m2
02:54 74.1 °F 71.6 °F 30.0 in ESE 1 mph 1 mph 92% 0.000 in 0.00 W/m2
02:59 74.1 °F 71.6 °F 30.0 in Calm     92% 0.000 in 0.00 W/m2
03:04 74.1 °F 71.8 °F 30.0 in ESE 1 mph 1 mph 93% 0.000 in 0.00 W/m2
03:09 73.9 °F 71.8 °F 30.0 in Calm   1 mph 93% 0.000 in 0.00 W/m2
03:14 73.9 °F 71.8 °F 30.0 in Calm     93% 0.000 in 0.00 W/m2
03:19 73.9 °F 71.8 °F 30.0 in Calm     93% 0.000 in 0.00 W/m2
03:24 73.9 °F 71.8 °F 30.0 in Calm     93% 0.000 in 0.00 W/m2
03:29 73.8 °F 71.6 °F 30.0 in ESE 1 mph 1 mph 93% 0.000 in 0.00 W/m2
03:34 73.8 °F 71.6 °F 30.0 in ESE 1 mph 1 mph 93% 0.000 in 0.00 W/m2
03:39 73.8 °F 71.6 °F 30.0 in ESE 1 mph 1 mph 93% 0.000 in 0.00 W/m2
03:44 73.8 °F 71.6 °F 30.0 in ESE 1 mph 1 mph 93% 0.000 in 0.00 W/m2
03:49 73.8 °F 71.6 °F 30.0 in Calm     93% 0.000 in 0.00 W/m2
03:54 73.8 °F 71.6 °F 30.0 in Calm     93% 0.000 in 0.00 W/m2
03:59 73.8 °F 71.6 °F 30.0 in Calm     93% 0.000 in 0.00 W/m2
04:04 73.8 °F 71.6 °F 30.0 in ESE 1 mph 1 mph 93% 0.000 in 0.00 W/m2
04:09 73.6 °F 71.4 °F 30.0 in ESE 1 mph 2 mph 93% 0.000 in 0.00 W/m2
04:14 73.6 °F 71.4 °F 30.0 in ESE 1 mph 1 mph 93% 0.000 in 0.00 W/m2
04:19 73.6 °F 71.4 °F 30.0 in ESE 1 mph 1 mph 93% 0.000 in 0.00 W/m2
04:24 73.6 °F 71.4 °F 30.0 in ESE 1 mph 1 mph 93% 0.000 in 0.00 W/m2
04:29 73.6 °F 71.8 °F 30.0 in ESE 1 mph 1 mph 94% 0.000 in 0.00 W/m2
04:34 73.6 °F 71.8 °F 30.0 in ESE 1 mph 1 mph 94% 0.000 in 0.00 W/m2
04:39 73.6 °F 71.8 °F 30.0 in ESE 1 mph 1 mph 94% 0.000 in 0.00 W/m2
04:44 73.6 °F 71.8 °F 30.0 in ESE 1 mph 1 mph 94% 0.000 in 0.00 W/m2
04:49 73.6 °F 71.8 °F 30.0 in ESE 1 mph 1 mph 94% 0.000 in 0.00 W/m2
04:54 73.6 °F 71.8 °F 30.0 in ESE 1 mph 1 mph 94% 0.000 in 0.00 W/m2
04:59 73.6 °F 71.4 °F 30.0 in ESE 1 mph 1 mph 93% 0.000 in 0.00 W/m2
05:04 73.4 °F 71.2 °F 30.0 in Calm   1 mph 93% 0.000 in 0.00 W/m2
05:09 73.2 °F 71.4 °F 30.0 in ESE 1 mph 1 mph 94% 0.000 in 0.00 W/m2
05:14 73.2 °F 71.4 °F 30.0 in ESE 1 mph 1 mph 94% 0.000 in 0.00 W/m2
05:19 73.2 °F 71.4 °F 30.0 in ESE 1 mph 1 mph 94% 0.000 in 0.00 W/m2
05:24 73.2 °F 71.4 °F 30.0 in ESE 1 mph 1 mph 94% 0.000 in 0.00 W/m2
05:29 73.2 °F 71.4 °F 30.0 in ESE 1 mph 1 mph 94% 0.000 in 0.00 W/m2
05:34 73.2 °F 71.4 °F 30.0 in ESE 1 mph 1 mph 94% 0.000 in 0.00 W/m2
05:39 73.2 °F 71.4 °F 30.0 in ESE 1 mph 2 mph 94% 0.000 in 0.00 W/m2
05:44 73.2 °F 71.4 °F 30.0 in ESE 1 mph 2 mph 94% 0.000 in 0.00 W/m2
05:49 73.2 °F 71.4 °F 30.0 in ESE 1 mph 2 mph 94% 0.000 in 0.00 W/m2
05:54 73.4 °F 71.6 °F 30.0 in ESE 1 mph 1 mph 94% 0.000 in 0.00 W/m2
05:59 73.6 °F 71.8 °F 30.0 in ESE 1 mph 1 mph 94% 0.000 in 0.00 W/m2
06:04 73.4 °F 71.6 °F 30.0 in ESE 1 mph 1 mph 94% 0.000 in 0.00 W/m2
06:09 73.4 °F 71.6 °F 30.0 in ESE 1 mph 2 mph 94% 0.000 in 0.00 W/m2
06:14 73.6 °F 71.8 °F 30.0 in ESE 1 mph 2 mph 94% 0.000 in 0.00 W/m2
06:19 73.6 °F 71.8 °F 30.0 in ESE 1 mph 2 mph 94% 0.000 in 0.00 W/m2
06:24 73.4 °F 71.6 °F 30.0 in Calm   1 mph 94% 0.000 in 0.00 W/m2
06:29 73.6 °F 71.8 °F 30.0 in ESE 1 mph 1 mph 94% 0.000 in 0.00 W/m2
06:34 73.6 °F 71.8 °F 30.0 in ESE 1 mph 2 mph 94% 0.000 in 0.00 W/m2
06:39 73.6 °F 71.8 °F 30.0 in ESE 2 mph 2 mph 94% 0.000 in 0.00 W/m2
06:44 73.6 °F 71.8 °F 30.0 in East 3 mph 3 mph 94% 0.000 in 0.00 W/m2
06:49 73.6 °F 71.8 °F 30.0 in NE 3 mph 3 mph 94% 0.000 in 0.00 W/m2
06:54 73.6 °F 71.8 °F 30.0 in NE 1 mph 1 mph 94% 0.000 in 0.00 W/m2
06:59 73.6 °F 72.1 °F 30.0 in NE 1 mph 2 mph 95% 0.000 in 0.00 W/m2
07:04 73.8 °F 72.3 °F 30.0 in NE 2 mph 2 mph 95% 0.000 in 0.00 W/m2
07:09 73.8 °F 72.3 °F 30.0 in NE 2 mph 2 mph 95% 0.000 in 0.00 W/m2
07:14 73.8 °F 72.3 °F 30.0 in NE 1 mph 2 mph 95% 0.000 in 0.00 W/m2
07:19 73.8 °F 72.0 °F 30.0 in NE 2 mph 2 mph 94% 0.000 in 0.00 W/m2
07:24 73.8 °F 72.3 °F 30.0 in NE 1 mph 2 mph 95% 0.000 in 0.00 W/m2
07:29 73.8 °F 72.3 °F 30.0 in NE 1 mph 1 mph 95% 0.000 in 0.00 W/m2
07:34 73.9 °F 72.5 °F 30.0 in NE 2 mph 3 mph 95% 0.000 in 0.00 W/m2
07:39 73.9 °F 72.1 °F 30.0 in NE 1 mph 3 mph 94% 0.000 in 0.00 W/m2
07:44 74.1 °F 72.7 °F 30.0 in NE 2 mph 2 mph 95% 0.000 in 5.00 W/m2
07:49 74.3 °F 72.9 °F 30.0 in NE 2 mph 2 mph 95% 0.000 in 9.00 W/m2
07:54 74.3 °F 72.9 °F 30.0 in NE 1 mph 1 mph 95% 0.000 in 14.00 W/m2
07:59 74.3 °F 72.9 °F 30.0 in NE 2 mph 2 mph 95% 0.000 in 21.00 W/m2
08:04 74.3 °F 72.9 °F 30.0 in NE 2 mph 2 mph 95% 0.000 in 26.00 W/m2
08:09 74.5 °F 73.0 °F 30.0 in NE 2 mph 3 mph 95% 0.000 in 54.00 W/m2
08:14 74.7 °F 73.2 °F 30.0 in NE 1 mph 2 mph 95% 0.000 in 54.00 W/m2
08:19 74.8 °F 73.2 °F 30.0 in NE 3 mph 3 mph 95% 0.000 in 49.00 W/m2
08:24 74.8 °F 73.0 °F 30.0 in NE 3 mph 3 mph 94% 0.000 in 54.00 W/m2
08:29 75.0 °F 73.4 °F 30.0 in ENE 4 mph 4 mph 95% 0.000 in 79.00 W/m2
08:34 75.0 °F 73.4 °F 30.0 in East 2 mph 3 mph 95% 0.000 in 84.00 W/m2
08:39 75.4 °F 73.8 °F 30.0 in ENE 3 mph 3 mph 95% 0.000 in 102.00 W/m2
08:44 75.6 °F 73.8 °F 30.0 in NE 3 mph 3 mph 94% 0.000 in 120.00 W/m2
08:49 75.7 °F 74.1 °F 30.0 in East 4 mph 4 mph 95% 0.000 in 116.00 W/m2
08:54 75.9 °F 74.1 °F 30.0 in ENE 4 mph 4 mph 95% 0.000 in 127.00 W/m2
08:59 75.9 °F 74.1 °F 30.0 in NNE 4 mph 4 mph 94% 0.000 in 105.00 W/m2
09:04 75.9 °F 74.1 °F 30.0 in NE 5 mph 5 mph 94% 0.000 in 98.00 W/m2
09:09 76.3 °F 74.5 °F 30.0 in ENE 4 mph 4 mph 94% 0.000 in 135.00 W/m2
09:14 76.6 °F 74.8 °F 30.0 in East 3 mph 3 mph 94% 0.000 in 165.00 W/m2
09:19 76.8 °F 74.8 °F 30.0 in NE 3 mph 4 mph 94% 0.000 in 243.00 W/m2
09:24 76.8 °F 74.7 °F 30.0 in ENE 3 mph 3 mph 93% 0.000 in 118.00 W/m2
09:29 77.4 °F 75.2 °F 30.0 in ENE 6 mph 6 mph 93% 0.000 in 338.00 W/m2
09:34 77.9 °F 75.4 °F 30.0 in East 3 mph 4 mph 93% 0.000 in 304.00 W/m2
09:39 78.1 °F 75.2 °F 30.0 in ESE 7 mph 7 mph 91% 0.000 in 396.00 W/m2
09:44 78.4 °F 75.2 °F 30.0 in ESE 5 mph 7 mph 90% 0.000 in 399.00 W/m2
09:49 78.4 °F 75.2 °F 30.0 in ESE 4 mph 5 mph 90% 0.000 in 223.00 W/m2
09:54 78.6 °F 75.0 °F 30.0 in East 3 mph 5 mph 89% 0.000 in 461.00 W/m2
09:59 79.0 °F 75.2 °F 30.0 in ESE 4 mph 4 mph 88% 0.000 in 373.00 W/m2
10:04 78.8 °F 74.7 °F 30.0 in East 4 mph 4 mph 87% 0.000 in 302.00 W/m2
10:09 79.0 °F 74.8 °F 30.0 in East 4 mph 4 mph 87% 0.000 in 274.00 W/m2
10:14 79.9 °F 75.7 °F 30.0 in East 3 mph 6 mph 87% 0.000 in 473.00 W/m2
10:19 80.4 °F 75.6 °F 30.0 in ESE 5 mph 9 mph 85% 0.000 in 545.00 W/m2
10:24 81.3 °F 75.9 °F 30.0 in East 3 mph 5 mph 85% 0.000 in 526.00 W/m2
10:29 81.3 °F 75.4 °F 30.0 in East 2 mph 4 mph 82% 0.000 in 109.00 W/m2
10:34 80.2 °F 74.5 °F 30.0 in ESE 2 mph 2 mph 83% 0.000 in 109.00 W/m2
10:39 79.9 °F 74.3 °F 30.0 in ESE 2 mph 2 mph 83% 0.000 in 97.00 W/m2
10:44 79.9 °F 74.3 °F 30.0 in ESE 1 mph 2 mph 83% 0.000 in 100.00 W/m2
10:49 79.9 °F 74.3 °F 30.0 in East 4 mph 4 mph 83% 0.000 in 113.00 W/m2
10:54 80.1 °F 74.5 °F 30.0 in NNE 3 mph 4 mph 83% 0.000 in 95.00 W/m2
10:59 80.1 °F 74.5 °F 30.0 in NNE 4 mph 4 mph 83% 0.000 in 105.00 W/m2
11:04 80.2 °F 74.7 °F 30.0 in NNE 4 mph 4 mph 83% 0.000 in 113.00 W/m2
11:09 80.2 °F 74.7 °F 30.0 in NNE 3 mph 4 mph 83% 0.000 in 107.00 W/m2
11:14 80.2 °F 74.7 °F 30.0 in North 3 mph 3 mph 83% 0.000 in 91.00 W/m2
11:19 80.1 °F 74.1 °F 30.0 in NNE 3 mph 4 mph 82% 0.000 in 107.00 W/m2
11:24 81.3 °F 75.4 °F 30.0 in North 4 mph 5 mph 83% 0.000 in 679.00 W/m2
11:29 81.9 °F 75.4 °F 30.0 in North 4 mph 4 mph 82% 0.000 in 679.00 W/m2
11:34 82.8 °F 75.6 °F 30.0 in North 4 mph 4 mph 80% 0.000 in 696.00 W/m2
11:39 82.8 °F 75.0 °F 30.0 in NNE 4 mph 4 mph 78% 0.000 in 628.00 W/m2
11:44 82.6 °F 75.0 °F 30.0 in North 3 mph 4 mph 78% 0.000 in 628.00 W/m2
11:49 82.2 °F 74.5 °F 30.0 in NNE 3 mph 3 mph 78% 0.000 in 93.00 W/m2
11:54 81.7 °F 74.1 °F 30.0 in NNE 2 mph 3 mph 78% 0.000 in 717.00 W/m2
11:59 82.9 °F 75.0 °F 30.0 in NNE 3 mph 4 mph 78% 0.000 in 722.00 W/m2
12:04 83.5 °F 74.1 °F 30.0 in NE 4 mph 4 mph 75% 0.000 in 722.00 W/m2
12:09 84.2 °F 74.1 °F 30.0 in NE 2 mph 2 mph 73% 0.000 in 729.00 W/m2
12:14 84.6 °F 74.3 °F 30.0 in NE 3 mph 3 mph 72% 0.000 in 742.00 W/m2
12:19 85.8 °F 74.8 °F 30.0 in ENE 3 mph 4 mph 70% 0.000 in 800.00 W/m2
12:24 85.8 °F 74.1 °F 30.0 in ENE 3 mph 4 mph 69% 0.000 in 838.00 W/m2
12:29 85.6 °F 74.3 °F 30.0 in ENE 4 mph 4 mph 70% 0.000 in 849.00 W/m2
12:34 86.0 °F 74.8 °F 30.0 in NW 5 mph 8 mph 70% 0.000 in 849.00 W/m2
12:39 86.4 °F 75.4 °F 30.0 in NW 6 mph 6 mph 70% 0.000 in 812.00 W/m2
12:44 87.1 °F 75.7 °F 30.0 in NNW 5 mph 6 mph 69% 0.000 in 851.00 W/m2
12:49 87.3 °F 75.9 °F 30.0 in NNW 6 mph 6 mph 69% 0.000 in 900.00 W/m2
12:54 86.5 °F 74.3 °F 30.0 in WNW 9 mph 9 mph 68% 0.000 in 900.00 W/m2
12:59 85.8 °F 73.9 °F 30.0 in WNW 4 mph 9 mph 68% 0.000 in 230.00 W/m2
13:04 86.4 °F 74.1 °F 30.0 in NW 5 mph 6 mph 67% 0.000 in 821.00 W/m2
13:09 86.5 °F 74.3 °F 30.0 in West 4 mph 6 mph 67% 0.000 in 812.00 W/m2
13:14 86.4 °F 74.1 °F 30.0 in West 5 mph 5 mph 67% 0.000 in 758.00 W/m2
13:19 85.8 °F 74.5 °F 30.0 in West 4 mph 6 mph 69% 0.000 in 745.00 W/m2
13:24 86.4 °F 74.5 °F 30.0 in NNW 6 mph 8 mph 69% 0.000 in 740.00 W/m2
13:29 87.4 °F 75.6 °F 30.0 in NNW 6 mph 8 mph 69% 0.000 in 733.00 W/m2
13:34 87.4 °F 74.7 °F 30.0 in NNW 5 mph 8 mph 66% 0.000 in 731.00 W/m2
13:39 87.4 °F 74.7 °F 30.0 in WNW 4 mph 6 mph 66% 0.000 in 731.00 W/m2
13:44 88.0 °F 74.7 °F 30.0 in NW 6 mph 8 mph 65% 0.000 in 744.00 W/m2
13:49 88.5 °F 74.8 °F 30.0 in NNW 8 mph 8 mph 65% 0.000 in 791.00 W/m2
13:54 88.7 °F 75.0 °F 30.0 in NNW 6 mph 9 mph 64% 0.000 in 868.00 W/m2
13:59 88.5 °F 74.7 °F 30.0 in NW 11 mph 12 mph 64% 0.000 in 868.00 W/m2
14:04 87.6 °F 73.9 °F 30.0 in NNW 23 mph 24 mph 64% 0.000 in 294.00 W/m2
14:09 83.5 °F 68.2 °F 30.0 in NNW 24 mph 31 mph 66% 0.000 in 69.00 W/m2
14:14 77.7 °F 65.8 °F 30.0 in NNW 29 mph 31 mph 74% 0.000 in 37.00 W/m2
14:19 73.8 °F 65.5 °F 30.0 in NNW 21 mph 21 mph 80% 0.000 in 18.00 W/m2
14:24 71.1 °F 64.8 °F 30.1 in NNW 20 mph 24 mph 84% 0.020 in 23.00 W/m2
14:29 69.4 °F 64.6 °F 30.1 in North 27 mph 27 mph 86% 0.100 in 28.00 W/m2
14:34 68.5 °F 64.2 °F 30.0 in NNW 19 mph 26 mph 86% 0.120 in 30.00 W/m2
14:39 68.4 °F 64.4 °F 30.0 in North 17 mph 18 mph 87% 0.160 in 25.00 W/m2
14:44 68.2 °F 64.4 °F 30.0 in North 14 mph 14 mph 88% 0.180 in 32.00 W/m2
14:49 68.4 °F 64.6 °F 30.0 in NNE 5 mph 11 mph 88% 0.180 in 40.00 W/m2
14:54 68.4 °F 64.6 °F 30.0 in NNE 4 mph 6 mph 88% 0.180 in 44.00 W/m2
14:59 68.5 °F 64.9 °F 30.0 in NE 4 mph 6 mph 89% 0.180 in 47.00 W/m2
15:04 68.5 °F 64.9 °F 30.0 in ENE 3 mph 5 mph 89% 0.180 in 47.00 W/m2
15:09 68.5 °F 65.1 °F 30.0 in East 4 mph 5 mph 89% 0.180 in 47.00 W/m2
15:14 68.5 °F 65.1 °F 30.0 in East 7 mph 7 mph 89% 0.180 in 72.00 W/m2
15:19 68.7 °F 65.1 °F 30.0 in NNE 4 mph 4 mph 89% 0.180 in 111.00 W/m2
15:24 69.4 °F 65.8 °F 30.0 in NW 10 mph 10 mph 89% 0.180 in 162.00 W/m2
15:29 69.6 °F 65.8 °F 30.0 in NNW 10 mph 10 mph 88% 0.150 in 193.00 W/m2
15:34 70.0 °F 66.0 °F 30.0 in NW 8 mph 9 mph 87% 0.080 in 214.00 W/m2
15:39 70.2 °F 66.0 °F 30.0 in NW 4 mph 6 mph 87% 0.060 in 244.00 W/m2
15:44 70.9 °F 66.7 °F 30.0 in SW 3 mph 3 mph 87% 0.020 in 322.00 W/m2
15:49 71.4 °F 67.3 °F 29.9 in South 4 mph 5 mph 87% 0.000 in 392.00 W/m2
15:54 72.5 °F 67.8 °F 30.0 in WSW 3 mph 3 mph 86% 0.000 in 608.00 W/m2
15:59 74.3 °F 69.1 °F 29.9 in North 5 mph 5 mph 84% 0.000 in 682.00 W/m2
16:04 74.7 °F 68.2 °F 29.9 in NNW 4 mph 6 mph 81% 0.000 in 682.00 W/m2
16:09 75.0 °F 68.0 °F 29.9 in NNW 4 mph 6 mph 80% 0.000 in 615.00 W/m2
16:14 75.9 °F 68.7 °F 30.0 in North 5 mph 5 mph 80% 0.000 in 603.00 W/m2
16:19 75.9 °F 68.2 °F 30.0 in North 2 mph 3 mph 77% 0.000 in 580.00 W/m2
16:24 75.9 °F 68.2 °F 30.0 in ESE 3 mph 3 mph 77% 0.000 in 519.00 W/m2
16:29 76.5 °F 67.5 °F 30.0 in NE 3 mph 3 mph 74% 0.000 in 497.00 W/m2
16:34 77.5 °F 68.5 °F 30.0 in North 4 mph 4 mph 74% 0.000 in 469.00 W/m2
16:39 77.5 °F 67.8 °F 30.0 in North 6 mph 6 mph 72% 0.000 in 441.00 W/m2
16:44 78.1 °F 68.0 °F 30.0 in NNW 11 mph 11 mph 72% 0.000 in 413.00 W/m2
16:49 77.7 °F 68.0 °F 30.0 in NNW 10 mph 11 mph 72% 0.000 in 383.00 W/m2
16:54 77.4 °F 68.0 °F 30.0 in NNW 13 mph 13 mph 73% 0.000 in 353.00 W/m2
16:59 77.4 °F 68.0 °F 30.0 in NNE 14 mph 14 mph 73% 0.000 in 330.00 W/m2
17:04 77.4 °F 68.0 °F 30.0 in North 17 mph 19 mph 73% 0.000 in 304.00 W/m2
17:09 76.5 °F 66.7 °F 30.0 in NNW 15 mph 17 mph 73% 0.000 in 308.00 W/m2
17:14 75.7 °F 66.4 °F 30.0 in North 14 mph 17 mph 74% 0.000 in 308.00 W/m2
17:19 75.0 °F 66.2 °F 30.0 in NNW 13 mph 17 mph 75% 0.000 in 102.00 W/m2
17:24 73.9 °F 65.8 °F 30.0 in North 14 mph 17 mph 76% 0.000 in 102.00 W/m2
17:29 73.6 °F 65.7 °F 30.0 in NNW 11 mph 12 mph 77% 0.000 in 62.00 W/m2
17:34 73.4 °F 65.7 °F 30.0 in NNW 12 mph 12 mph 77% 0.000 in 62.00 W/m2
17:39 73.0 °F 65.8 °F 30.0 in NNW 12 mph 13 mph 78% 0.000 in 46.00 W/m2
17:44 73.0 °F 65.8 °F 30.0 in NNW 12 mph 13 mph 78% 0.000 in 25.00 W/m2
17:49 72.7 °F 65.7 °F 30.1 in NNW 10 mph 14 mph 79% 0.000 in 12.00 W/m2
17:54 72.3 °F 65.5 °F 30.1 in NNW 16 mph 18 mph 79% 0.000 in 12.00 W/m2
17:59 71.4 °F 64.4 °F 30.1 in NNW 13 mph 18 mph 79% 0.000 in 11.00 W/m2
18:04 70.9 °F 64.4 °F 30.1 in NNW 14 mph 16 mph 80% 0.000 in 11.00 W/m2
18:09 70.5 °F 64.0 °F 30.1 in NNW 20 mph 20 mph 80% 0.000 in 14.00 W/m2
18:14 69.6 °F 62.8 °F 30.1 in NNW 13 mph 16 mph 79% 0.000 in 14.00 W/m2
18:19 69.1 °F 62.2 °F 30.1 in NNW 15 mph 19 mph 79% 0.000 in 14.00 W/m2
18:24 68.7 °F 61.9 °F 30.1 in NNW 15 mph 19 mph 79% 0.000 in 14.00 W/m2
18:29 68.4 °F 61.9 °F 30.1 in NW 14 mph 14 mph 80% 0.000 in 11.00 W/m2
18:34 68.0 °F 61.5 °F 30.1 in NNW 16 mph 16 mph 80% 0.000 in 7.00 W/m2
18:39 67.6 °F 61.3 °F 30.1 in NNW 13 mph 16 mph 81% 0.000 in 7.00 W/m2
18:44 67.5 °F 61.3 °F 30.1 in North 9 mph 9 mph 81% 0.000 in 0.00 W/m2
Villages of Bridgestone, Spring, TX USA
Compliments of Weather Underground - 4 mb